Rosston, Oklahoma
Current Conditions -  °F | °C
As of 10:55 AM on Monday 22 Dec 2014 (Local Time) from KWWR Reporting Station
Clear Clear  
Wind Chill: 52°   Ceiling: Unl
Heat Index: 52°   Visibility: 10mi
Dew Point: 32°   Wind: 23mph
Humidity: 47%   Direction: 320°NW
Pressure: 29.71"   Gusts: 29mph
Location:  36.81°N, 99.93°W
Report Text: KWWR 221655Z AUTO 32020G25KT 10SM CLR 11/00 A2971 RMK AO2
Loading
Personal Weather Stations






























Interactive Weather Map New forecast layout! Learn more

10-Day Weather Forecast

Advertisements
Track Severe Weather on mobile